createdAt,value
2018-07-25T00:02:02.781Z,68.82
2018-07-25T00:04:31.667Z,68.79
2018-07-25T00:07:00.605Z,68.47
2018-07-25T00:09:29.734Z,68.91
2018-07-25T00:11:58.801Z,69.17
2018-07-25T00:14:27.700Z,69.27
2018-07-25T00:16:56.634Z,69.01
2018-07-25T00:19:25.544Z,69.15
2018-07-25T00:21:54.466Z,69.70
2018-07-25T00:24:23.409Z,69.49
2018-07-25T00:26:52.336Z,69.18
2018-07-25T00:29:21.784Z,69.07
2018-07-25T00:31:50.828Z,69.03
2018-07-25T00:34:19.820Z,70.08
2018-07-25T00:36:48.764Z,69.95
2018-07-25T00:39:17.944Z,71.20
2018-07-25T00:41:47.088Z,70.69
2018-07-25T00:44:16.180Z,71.32
2018-07-25T00:46:45.391Z,70.20
2018-07-25T00:49:14.333Z,70.89
2018-07-25T00:51:43.375Z,70.76
2018-07-25T00:54:12.499Z,70.54
2018-07-25T00:56:41.447Z,70.44
2018-07-25T00:59:10.445Z,71.53
2018-07-25T01:01:39.364Z,71.70
2018-07-25T01:04:08.272Z,70.69
2018-07-25T01:06:37.352Z,71.29
2018-07-25T01:09:07.802Z,71.28
2018-07-25T01:11:36.713Z,72.05
2018-07-25T01:14:05.632Z,71.83
2018-07-25T01:16:34.589Z,71.16
2018-07-25T01:19:03.568Z,71.26
2018-07-25T01:21:32.516Z,71.97
2018-07-25T01:24:01.419Z,71.63
2018-07-25T01:26:30.365Z,71.70
2018-07-25T01:28:59.211Z,71.99
2018-07-25T01:31:28.115Z,72.68
2018-07-25T01:33:57.012Z,73.44
2018-07-25T01:36:25.969Z,73.44
2018-07-25T01:38:54.835Z,73.42
2018-07-25T01:41:23.743Z,73.53
2018-07-25T01:43:52.612Z,73.36
2018-07-25T01:46:21.502Z,73.73
2018-07-25T01:48:50.398Z,73.46
2018-07-25T01:51:19.302Z,72.87
2018-07-25T01:53:48.187Z,73.60
2018-07-25T01:56:17.127Z,73.21
2018-07-25T01:58:46.002Z,73.41
2018-07-25T02:01:14.893Z,74.05
2018-07-25T02:03:43.761Z,73.87
2018-07-25T02:06:12.647Z,73.53
2018-07-25T02:08:41.536Z,74.51
2018-07-25T02:11:10.454Z,75.00
2018-07-25T02:13:39.315Z,74.59
2018-07-25T02:16:08.218Z,75.87
2018-07-25T02:18:37.254Z,76.28
2018-07-25T02:21:06.414Z,76.10
2018-07-25T02:23:35.377Z,75.31
2018-07-25T02:26:04.257Z,75.39
2018-07-25T02:28:33.163Z,75.95
2018-07-25T02:31:02.036Z,76.17
2018-07-25T02:33:36.403Z,75.18
2018-07-25T02:36:05.327Z,76.28
2018-07-25T02:38:34.217Z,75.92
2018-07-25T02:41:03.142Z,76.26
2018-07-25T02:43:32.053Z,76.10
2018-07-25T02:46:00.971Z,76.17
2018-07-25T02:48:29.877Z,76.18
2018-07-25T02:50:58.791Z,76.33
2018-07-25T02:53:27.685Z,75.83
2018-07-25T02:55:56.576Z,75.95
2018-07-25T02:58:25.467Z,75.38
2018-07-25T03:00:54.335Z,76.28
2018-07-25T03:03:23.223Z,76.24
2018-07-25T03:05:52.098Z,76.28
2018-07-25T03:08:20.977Z,76.92
2018-07-25T03:10:54.425Z,76.74
2018-07-25T03:13:24.048Z,77.21
2018-07-25T03:16:03.688Z,77.52
2018-07-25T03:18:32.668Z,77.84
2018-07-25T03:21:02.173Z,77.59
2018-07-25T03:23:32.599Z,77.19
2018-07-25T03:26:01.518Z,76.85
2018-07-25T03:28:30.898Z,77.71
2018-07-25T03:31:00.525Z,76.67
2018-07-25T03:33:29.418Z,77.06
2018-07-25T03:35:59.217Z,77.12
2018-07-25T03:38:28.711Z,76.68
2018-07-25T03:40:57.591Z,76.10
2018-07-25T03:43:26.484Z,76.31
2018-07-25T03:45:55.538Z,76.22
2018-07-25T03:48:24.436Z,76.10
2018-07-25T03:50:53.335Z,77.18
2018-07-25T03:53:22.248Z,76.89
2018-07-25T03:55:51.171Z,77.21
2018-07-25T03:58:20.083Z,76.57
2018-07-25T04:00:49.103Z,76.18
2018-07-25T04:03:18.018Z,76.17
2018-07-25T04:05:46.924Z,76.23
2018-07-25T04:08:15.910Z,76.09
2018-07-25T04:10:48.411Z,75.78
2018-07-25T04:13:18.020Z,76.73
2018-07-25T04:15:47.282Z,76.05
2018-07-25T04:18:16.251Z,76.76
2018-07-25T04:20:45.254Z,75.69
2018-07-25T04:23:14.167Z,75.25
2018-07-25T04:25:43.315Z,75.82
2018-07-25T04:28:12.224Z,75.23
2018-07-25T04:30:41.145Z,76.38
2018-07-25T04:33:10.088Z,74.85
2018-07-25T04:35:39.015Z,76.48
2018-07-25T04:38:08.060Z,76.21
2018-07-25T04:40:36.980Z,75.16
2018-07-25T04:43:05.907Z,75.05
2018-07-25T04:45:35.496Z,73.95
2018-07-25T04:48:04.798Z,73.92
2018-07-25T04:50:33.801Z,73.55
2018-07-25T04:53:02.710Z,73.52
2018-07-25T04:55:31.617Z,73.84
2018-07-25T04:58:00.521Z,74.27
2018-07-25T05:00:29.434Z,74.18
2018-07-25T05:02:58.351Z,73.58
2018-07-25T05:05:27.264Z,73.15
2018-07-25T05:07:56.288Z,72.53
2018-07-25T05:10:25.175Z,72.83
2018-07-25T05:12:54.380Z,72.62
2018-07-25T05:15:23.542Z,71.91
2018-07-25T05:17:52.578Z,72.77
2018-07-25T05:20:22.458Z,72.51
2018-07-25T05:22:51.662Z,71.97
2018-07-25T05:25:20.557Z,70.72
2018-07-25T05:27:49.446Z,71.34
2018-07-25T05:30:18.389Z,70.77
2018-07-25T05:32:47.249Z,70.21
2018-07-25T05:35:16.207Z,69.93
2018-07-25T05:37:45.117Z,69.05
2018-07-25T05:40:14.077Z,69.55
2018-07-25T05:42:42.992Z,68.79
2018-07-25T05:45:11.958Z,69.14
2018-07-25T05:47:40.883Z,68.21
2018-07-25T05:50:09.849Z,68.15
2018-07-25T05:52:38.752Z,67.18
2018-07-25T05:55:07.692Z,66.60
2018-07-25T05:57:36.641Z,66.74
2018-07-25T06:00:05.722Z,65.63
2018-07-25T06:02:34.606Z,64.43
2018-07-25T06:05:03.642Z,61.87
2018-07-25T06:07:32.679Z,57.35
2018-07-25T06:10:01.610Z,53.33
2018-07-25T06:12:30.539Z,48.94
2018-07-25T06:14:59.631Z,47.05
2018-07-25T06:17:28.546Z,45.88
2018-07-25T06:19:57.471Z,44.58
2018-07-25T06:22:26.395Z,44.04
2018-07-25T06:24:55.339Z,43.71
2018-07-25T06:27:24.332Z,42.77
2018-07-25T06:29:53.315Z,44.84
2018-07-25T06:32:22.231Z,45.21
2018-07-25T06:34:51.201Z,43.79
2018-07-25T06:37:20.040Z,42.94
2018-07-25T06:39:48.971Z,43.10
2018-07-25T06:42:17.883Z,42.25
2018-07-25T06:44:46.900Z,42.94
2018-07-25T06:47:15.854Z,43.63
2018-07-25T06:49:44.804Z,47.40
2018-07-25T06:52:13.741Z,50.44
2018-07-25T06:54:42.678Z,51.96
2018-07-25T06:57:11.696Z,53.99
2018-07-25T06:59:40.539Z,53.24
2018-07-25T07:02:09.452Z,49.06
2018-07-25T07:04:38.374Z,48.74
2018-07-25T07:07:07.350Z,44.20
2018-07-25T07:09:36.251Z,41.38
2018-07-25T07:12:05.206Z,39.73
2018-07-25T07:14:34.399Z,39.11
2018-07-25T07:17:03.452Z,39.53
2018-07-25T07:19:32.485Z,36.91
2018-07-25T07:22:01.575Z,36.18
2018-07-25T07:24:30.501Z,36.81
2018-07-25T07:26:59.435Z,37.35
2018-07-25T07:29:28.347Z,38.62
2018-07-25T07:31:57.253Z,37.77
2018-07-25T07:34:26.150Z,36.98
2018-07-25T07:36:55.064Z,38.19
2018-07-25T07:39:24.015Z,39.40
2018-07-25T07:41:52.961Z,40.72
2018-07-25T07:44:21.896Z,42.95
2018-07-25T07:46:50.921Z,42.32
2018-07-25T07:49:19.871Z,42.29
2018-07-25T07:51:48.797Z,39.73
2018-07-25T07:54:17.765Z,40.62
2018-07-25T07:56:46.691Z,42.86
2018-07-25T07:59:15.601Z,42.64
2018-07-25T08:01:44.843Z,40.57
2018-07-25T08:04:13.761Z,38.85
2018-07-25T08:06:42.656Z,36.34
2018-07-25T08:09:13.267Z,37.39
2018-07-25T08:11:42.748Z,38.61
2018-07-25T08:14:11.796Z,37.27
2018-07-25T08:16:41.244Z,37.82
2018-07-25T08:19:11.178Z,38.31
2018-07-25T08:21:40.053Z,36.48
2018-07-25T08:24:08.955Z,38.11
2018-07-25T08:26:37.928Z,39.02
2018-07-25T08:29:06.847Z,38.11
2018-07-25T08:31:35.760Z,39.22
2018-07-25T08:34:04.654Z,39.39
2018-07-25T08:36:33.535Z,39.15
2018-07-25T08:39:02.472Z,36.65
2018-07-25T08:41:31.435Z,37.46
2018-07-25T08:44:00.407Z,37.32
2018-07-25T08:46:29.362Z,37.71
2018-07-25T08:48:58.331Z,36.19
2018-07-25T08:51:27.259Z,35.43
2018-07-25T08:53:56.168Z,37.53
2018-07-25T08:56:25.059Z,35.89
2018-07-25T08:58:53.955Z,36.86
2018-07-25T09:01:22.860Z,38.25
2018-07-25T09:03:51.814Z,38.24
2018-07-25T09:06:20.746Z,36.31
2018-07-25T09:08:49.653Z,36.94
2018-07-25T09:11:22.749Z,34.40
2018-07-25T09:13:51.632Z,34.73
2018-07-25T09:16:20.543Z,34.33
2018-07-25T09:18:49.438Z,32.54
2018-07-25T09:21:18.467Z,33.55
2018-07-25T09:23:47.771Z,32.58
2018-07-25T09:26:16.693Z,34.86
2018-07-25T09:28:45.604Z,33.59
2018-07-25T09:31:14.738Z,32.73
2018-07-25T09:33:43.667Z,33.94
2018-07-25T09:36:12.789Z,34.00
2018-07-25T09:38:41.697Z,35.11
2018-07-25T09:41:10.671Z,33.26
2018-07-25T09:43:39.616Z,32.01
2018-07-25T09:46:08.700Z,35.33
2018-07-25T09:48:37.709Z,37.94
2018-07-25T09:51:06.644Z,36.16
2018-07-25T09:53:35.541Z,37.15
2018-07-25T09:56:04.450Z,38.35
2018-07-25T09:58:33.357Z,37.92
2018-07-25T10:01:02.307Z,35.29
2018-07-25T10:03:31.197Z,34.18
2018-07-25T10:06:00.154Z,34.10
2018-07-25T10:08:29.049Z,35.51
2018-07-25T10:10:57.976Z,34.66
2018-07-25T10:13:27.040Z,35.59
2018-07-25T10:15:55.944Z,36.38
2018-07-25T10:18:24.885Z,36.47
2018-07-25T10:20:53.846Z,38.49
2018-07-25T10:23:22.709Z,38.43
2018-07-25T10:25:51.588Z,39.47
2018-07-25T10:28:20.468Z,37.04
2018-07-25T10:30:49.383Z,36.72
2018-07-25T10:33:18.300Z,37.16
2018-07-25T10:35:47.213Z,34.72
2018-07-25T10:38:16.111Z,33.00
2018-07-25T10:40:45.043Z,32.13
2018-07-25T10:43:13.934Z,31.96
2018-07-25T10:45:42.903Z,32.01
2018-07-25T10:48:11.783Z,31.87
2018-07-25T10:50:40.644Z,31.40
2018-07-25T10:53:09.549Z,30.27
2018-07-25T10:55:38.860Z,28.48
2018-07-25T10:58:07.767Z,30.57
2018-07-25T11:00:36.644Z,29.89
2018-07-25T11:03:05.560Z,30.50
2018-07-25T11:05:34.607Z,28.87
2018-07-25T11:08:03.532Z,27.98
2018-07-25T11:10:32.479Z,26.85
2018-07-25T11:13:01.448Z,27.93
2018-07-25T11:15:30.328Z,27.75
2018-07-25T11:17:59.220Z,27.56
2018-07-25T11:20:28.133Z,25.65
2018-07-25T11:22:57.134Z,27.04
2018-07-25T11:25:25.991Z,26.62
2018-07-25T11:27:54.924Z,27.06
2018-07-25T11:30:23.859Z,26.34
2018-07-25T11:32:52.822Z,26.00
2018-07-25T11:35:21.679Z,26.28
2018-07-25T11:37:50.576Z,25.00
2018-07-25T11:40:19.476Z,25.12
2018-07-25T11:42:48.510Z,23.51
2018-07-25T11:45:18.235Z,25.93
2018-07-25T11:47:47.151Z,27.17
2018-07-25T11:50:16.080Z,29.25
2018-07-25T11:52:44.987Z,29.00
2018-07-25T11:55:13.947Z,26.27
2018-07-25T11:57:42.847Z,27.30
2018-07-25T12:00:11.739Z,25.55
2018-07-25T12:02:41.305Z,25.00
2018-07-25T12:05:10.201Z,27.41
2018-07-25T12:07:39.095Z,26.10
2018-07-25T12:10:08.017Z,29.65
2018-07-25T12:12:40.919Z,27.79
2018-07-25T12:15:10.347Z,28.41
2018-07-25T12:17:39.259Z,30.87
2018-07-25T12:20:08.539Z,27.97
2018-07-25T12:22:37.440Z,25.61
2018-07-25T12:25:06.830Z,26.38
2018-07-25T12:27:35.783Z,25.68
2018-07-25T12:30:05.375Z,27.25
2018-07-25T12:32:34.243Z,26.96
2018-07-25T12:35:03.157Z,29.82
2018-07-25T12:37:32.193Z,28.61
2018-07-25T12:40:01.170Z,28.74
2018-07-25T12:42:30.061Z,29.98
2018-07-25T12:44:58.931Z,29.74
2018-07-25T12:47:27.830Z,31.29
2018-07-25T12:49:56.815Z,31.09
2018-07-25T12:52:25.697Z,28.38
2018-07-25T12:54:54.599Z,30.98
2018-07-25T12:57:23.496Z,29.09
2018-07-25T12:59:52.376Z,27.21
2018-07-25T13:02:21.290Z,26.62
2018-07-25T13:04:50.183Z,27.14
2018-07-25T13:07:19.217Z,27.89
2018-07-25T13:09:48.113Z,28.63
2018-07-25T13:12:17.195Z,29.94
2018-07-25T13:14:46.107Z,29.73
2018-07-25T13:17:15.041Z,30.95
2018-07-25T13:19:43.986Z,27.88
2018-07-25T13:22:12.945Z,27.29
2018-07-25T13:24:41.894Z,28.79
2018-07-25T13:27:10.794Z,28.26
2018-07-25T13:29:39.680Z,30.68
2018-07-25T13:32:08.576Z,29.97
2018-07-25T13:34:37.522Z,28.21
2018-07-25T13:37:06.862Z,27.45
2018-07-25T13:39:35.694Z,29.58
2018-07-25T13:42:04.675Z,29.62
2018-07-25T13:44:33.796Z,27.22
2018-07-25T13:47:02.776Z,30.45
2018-07-25T13:49:31.673Z,28.82
2018-07-25T13:52:00.576Z,27.43
2018-07-25T13:54:29.459Z,28.36
2018-07-25T13:56:58.348Z,29.27
2018-07-25T13:59:27.325Z,29.18
2018-07-25T14:01:56.636Z,29.24
2018-07-25T14:04:25.807Z,29.78
2018-07-25T14:06:54.926Z,28.38
2018-07-25T14:09:23.823Z,28.60
2018-07-25T14:11:52.819Z,28.20
2018-07-25T14:14:22.041Z,29.34
2018-07-25T14:16:50.920Z,29.17
2018-07-25T14:19:19.813Z,28.38
2018-07-25T14:21:48.807Z,28.99
2018-07-25T14:24:17.722Z,29.16
2018-07-25T14:26:46.634Z,29.77
2018-07-25T14:29:15.627Z,28.79
2018-07-25T14:31:44.474Z,29.67
2018-07-25T14:34:13.400Z,30.88
2018-07-25T14:36:42.267Z,30.52
2018-07-25T14:39:12.091Z,31.26
2018-07-25T14:41:41.687Z,30.02
2018-07-25T14:44:11.073Z,29.07
2018-07-25T14:46:40.033Z,31.00
2018-07-25T14:49:08.883Z,30.61
2018-07-25T14:51:37.953Z,29.36
2018-07-25T14:54:06.753Z,30.30
2018-07-25T14:56:35.714Z,29.09
2018-07-25T14:59:04.775Z,30.48
2018-07-25T15:01:33.669Z,30.36
2018-07-25T15:04:02.575Z,31.06
2018-07-25T15:06:31.607Z,29.39
2018-07-25T15:09:00.520Z,30.83
2018-07-25T15:11:29.390Z,30.62
2018-07-25T15:13:58.347Z,30.09
2018-07-25T15:16:27.265Z,28.61
2018-07-25T15:18:56.235Z,29.62
2018-07-25T15:21:25.150Z,30.32
2018-07-25T15:24:00.671Z,29.93
2018-07-25T15:26:30.019Z,30.59
2018-07-25T15:28:59.980Z,30.71
2018-07-25T15:31:28.822Z,30.09
2018-07-25T15:33:57.767Z,30.33
2018-07-25T15:36:47.575Z,31.71
2018-07-25T15:39:24.970Z,31.64
2018-07-25T15:41:54.915Z,33.97
2018-07-25T15:44:24.686Z,36.12
2018-07-25T15:46:53.615Z,37.41
2018-07-25T15:49:22.667Z,38.75
2018-07-25T15:51:51.605Z,45.07
2018-07-25T15:54:20.507Z,49.54
2018-07-25T15:56:49.405Z,52.67
2018-07-25T15:59:18.360Z,54.94
2018-07-25T16:01:47.350Z,53.57
2018-07-25T16:04:16.138Z,52.36
2018-07-25T16:06:45.037Z,53.18
2018-07-25T16:09:13.938Z,54.52
2018-07-25T16:11:42.835Z,53.57
2018-07-25T16:14:11.759Z,54.62
2018-07-25T16:16:40.662Z,55.02
2018-07-25T16:19:09.632Z,54.93
2018-07-25T16:21:38.534Z,55.16
2018-07-25T16:24:07.434Z,54.21
2018-07-25T16:26:36.283Z,54.60
2018-07-25T16:29:05.438Z,56.21
2018-07-25T16:31:34.361Z,55.97
2018-07-25T16:34:03.245Z,56.93
2018-07-25T16:36:32.167Z,57.47
2018-07-25T16:39:01.196Z,57.04
2018-07-25T16:41:30.095Z,57.64
2018-07-25T16:43:59.008Z,56.96
2018-07-25T16:46:27.917Z,56.55
2018-07-25T16:48:56.808Z,55.44
2018-07-25T16:51:25.746Z,53.99
2018-07-25T16:53:54.656Z,53.27
2018-07-25T16:56:23.552Z,52.93
2018-07-25T16:58:52.435Z,51.51
2018-07-25T17:01:21.322Z,51.63
2018-07-25T17:03:50.255Z,51.37
2018-07-25T17:06:19.192Z,53.47
2018-07-25T17:08:48.225Z,53.31
2018-07-25T17:11:17.193Z,52.99
2018-07-25T17:13:46.095Z,53.85
2018-07-25T17:16:14.999Z,52.88
2018-07-25T17:18:44.038Z,51.71
2018-07-25T17:21:12.947Z,52.28
2018-07-25T17:23:41.940Z,52.28
2018-07-25T17:26:10.831Z,51.83
2018-07-25T17:28:39.713Z,53.71
2018-07-25T17:31:08.628Z,53.22
2018-07-25T17:33:37.516Z,52.88
2018-07-25T17:36:06.409Z,53.05
2018-07-25T17:38:35.281Z,53.13
2018-07-25T17:41:04.183Z,52.37
2018-07-25T17:43:33.066Z,52.61
2018-07-25T17:46:01.953Z,52.98
2018-07-25T17:48:30.864Z,53.28
2018-07-25T17:51:00.097Z,53.88
2018-07-25T17:53:28.977Z,54.09
2018-07-25T17:55:57.963Z,54.63
2018-07-25T17:58:26.968Z,54.99
2018-07-25T18:00:56.045Z,55.76
2018-07-25T18:03:25.020Z,56.41
2018-07-25T18:05:53.907Z,57.39
2018-07-25T18:08:22.823Z,58.09
2018-07-25T18:10:52.052Z,58.47
2018-07-25T18:13:26.383Z,58.73
2018-07-25T18:15:55.283Z,58.96
2018-07-25T18:18:24.172Z,60.00
2018-07-25T18:20:53.539Z,60.62
2018-07-25T18:23:22.459Z,60.76
2018-07-25T18:25:51.346Z,60.38
2018-07-25T18:28:20.229Z,61.30
2018-07-25T18:30:49.517Z,60.84
2018-07-25T18:33:18.426Z,60.24
2018-07-25T18:35:47.642Z,60.29
2018-07-25T18:38:16.482Z,59.33
2018-07-25T18:40:45.372Z,58.73
2018-07-25T18:43:14.620Z,58.70
2018-07-25T18:45:43.503Z,58.78
2018-07-25T18:48:12.625Z,59.35
2018-07-25T18:50:41.499Z,59.71
2018-07-25T18:53:10.389Z,59.28
2018-07-25T18:55:39.284Z,59.82
2018-07-25T18:58:08.200Z,59.76
2018-07-25T19:00:37.111Z,60.31
2018-07-25T19:03:06.064Z,60.03
2018-07-25T19:05:34.948Z,60.13
2018-07-25T19:08:03.835Z,60.57
2018-07-25T19:10:32.832Z,61.97
2018-07-25T19:13:01.753Z,61.29
2018-07-25T19:15:32.717Z,61.27
2018-07-25T19:18:02.192Z,62.45
2018-07-25T19:20:31.125Z,63.54
2018-07-25T19:23:00.013Z,62.58
2018-07-25T19:25:28.902Z,64.16
2018-07-25T19:27:57.782Z,63.95
2018-07-25T19:30:26.691Z,64.44
2018-07-25T19:32:55.632Z,64.51
2018-07-25T19:35:24.509Z,63.39
2018-07-25T19:37:53.510Z,63.56
2018-07-25T19:40:22.490Z,64.25
2018-07-25T19:42:51.609Z,64.16
2018-07-25T19:45:20.580Z,64.70
2018-07-25T19:47:49.507Z,63.18
2018-07-25T19:50:18.972Z,64.20
2018-07-25T19:52:48.508Z,64.76
2018-07-25T19:55:18.268Z,65.69
2018-07-25T19:57:47.186Z,64.20
2018-07-25T20:00:16.554Z,65.03
2018-07-25T20:02:44.992Z,66.43
2018-07-25T20:05:15.639Z,66.78
2018-07-25T20:07:44.914Z,65.56
2018-07-25T20:10:14.032Z,65.89
2018-07-25T20:12:43.070Z,65.50
2018-07-25T20:15:17.783Z,66.28
2018-07-25T20:17:47.795Z,65.23
2018-07-25T20:20:17.716Z,66.60
2018-07-25T20:22:46.896Z,66.29
2018-07-25T20:25:16.023Z,67.34
2018-07-25T20:27:44.936Z,67.03
2018-07-25T20:30:13.888Z,66.92
2018-07-25T20:32:42.812Z,66.89
2018-07-25T20:35:11.732Z,67.14
2018-07-25T20:37:42.012Z,67.15
2018-07-25T20:40:10.965Z,67.47
2018-07-25T20:42:39.893Z,67.84
2018-07-25T20:45:09.852Z,68.31
2018-07-25T20:47:38.774Z,67.42
2018-07-25T20:50:07.789Z,66.68
2018-07-25T20:52:36.972Z,66.21
2018-07-25T20:55:05.938Z,68.08
2018-07-25T20:57:34.841Z,68.49
2018-07-25T21:00:03.767Z,67.69
2018-07-25T21:02:32.688Z,67.88
2018-07-25T21:05:01.899Z,68.20
2018-07-25T21:07:30.802Z,69.16
2018-07-25T21:09:59.805Z,68.06
2018-07-25T21:12:29.037Z,69.04
2018-07-25T21:14:57.976Z,68.62
2018-07-25T21:17:27.050Z,68.44
2018-07-25T21:19:55.941Z,69.26
2018-07-25T21:22:24.859Z,68.83
2018-07-25T21:24:57.096Z,69.09
2018-07-25T21:27:26.016Z,69.71
2018-07-25T21:29:54.989Z,69.03
2018-07-25T21:32:23.903Z,69.36
2018-07-25T21:34:52.819Z,68.29
2018-07-25T21:37:21.738Z,69.56
2018-07-25T21:39:50.656Z,69.46
2018-07-25T21:42:19.973Z,70.25
2018-07-25T21:44:50.914Z,70.33
2018-07-25T21:47:19.833Z,70.63
2018-07-25T21:49:48.725Z,70.52
2018-07-25T21:52:22.920Z,70.00
2018-07-25T21:54:51.826Z,69.39
2018-07-25T21:57:20.738Z,70.64
2018-07-25T21:59:50.746Z,69.70
2018-07-25T22:02:19.630Z,70.16
2018-07-25T22:04:49.453Z,69.29
2018-07-25T22:07:19.042Z,69.59
2018-07-25T22:09:47.953Z,69.12
2018-07-25T22:12:17.002Z,70.10
2018-07-25T22:14:46.728Z,70.76
2018-07-25T22:17:15.630Z,70.75
2018-07-25T22:19:44.598Z,71.71
2018-07-25T22:22:13.595Z,72.54
2018-07-25T22:24:42.556Z,72.04
2018-07-25T22:27:11.469Z,71.10
2018-07-25T22:29:40.468Z,71.72
2018-07-25T22:32:09.852Z,72.28
2018-07-25T22:34:38.768Z,72.12
2018-07-25T22:37:07.860Z,70.87
2018-07-25T22:39:36.774Z,71.27
2018-07-25T22:42:05.672Z,72.20
2018-07-25T22:44:34.641Z,70.97
2018-07-25T22:47:03.567Z,72.38
2018-07-25T22:49:32.499Z,72.20
2018-07-25T22:52:02.402Z,72.18
2018-07-25T22:54:31.303Z,72.06
2018-07-25T22:57:00.222Z,72.52
2018-07-25T22:59:29.176Z,73.48
2018-07-25T23:01:58.634Z,74.13
2018-07-25T23:04:27.608Z,73.64
2018-07-25T23:06:56.608Z,72.97
2018-07-25T23:09:25.487Z,74.19
2018-07-25T23:11:54.511Z,74.89
2018-07-25T23:14:23.510Z,75.73
2018-07-25T23:16:52.408Z,76.82
2018-07-25T23:19:21.322Z,77.53
2018-07-25T23:21:50.274Z,77.74
2018-07-25T23:24:19.279Z,78.37
2018-07-25T23:26:48.175Z,79.43
2018-07-25T23:29:17.135Z,80.28
2018-07-25T23:31:46.113Z,80.57
2018-07-25T23:34:15.023Z,80.86
2018-07-25T23:36:43.968Z,81.07
2018-07-25T23:39:12.895Z,80.83
2018-07-25T23:41:41.786Z,80.99
2018-07-25T23:44:10.736Z,80.67
2018-07-25T23:46:39.623Z,81.27
2018-07-25T23:49:08.539Z,80.88
2018-07-25T23:51:37.593Z,81.48
2018-07-25T23:54:06.544Z,82.23
2018-07-25T23:56:35.672Z,82.18
2018-07-25T23:59:04.686Z,81.72
